createdAt,value
2022-10-15T00:00:43.843Z,12.65
2022-10-15T00:00:57.563Z,12.65
2022-10-15T00:01:28.668Z,12.65
2022-10-15T00:01:59.020Z,12.65
2022-10-15T00:02:30.424Z,12.65
2022-10-15T00:03:04.070Z,12.65
2022-10-15T00:03:34.172Z,12.65
2022-10-15T00:04:04.300Z,12.65
2022-10-15T00:04:35.277Z,12.49
2022-10-15T00:05:07.463Z,12.65
2022-10-15T00:05:36.790Z,12.49
2022-10-15T00:06:24.735Z,12.49
2022-10-15T00:06:38.900Z,12.49
2022-10-15T00:07:09.340Z,12.49
2022-10-15T00:07:44.062Z,12.49
2022-10-15T00:12:19.727Z,12.49
2022-10-15T00:13:00.320Z,12.65
2022-10-15T00:13:22.100Z,12.65
2022-10-15T00:13:51.993Z,12.65
2022-10-15T00:14:23.328Z,12.49
2022-10-15T00:14:57.307Z,12.49
2022-10-15T00:15:30.353Z,12.65
2022-10-15T00:16:09.134Z,12.65
2022-10-15T00:18:27.985Z,12.65
2022-10-15T00:18:37.848Z,12.55
2022-10-15T00:19:05.425Z,12.55
2022-10-15T00:19:34.731Z,12.55
2022-10-15T00:20:09.340Z,12.55
2022-10-15T00:20:39.313Z,12.55
2022-10-15T00:21:13.724Z,12.55
2022-10-15T00:21:39.724Z,12.55
2022-10-15T00:22:09.837Z,12.55
2022-10-15T00:22:39.469Z,12.55
2022-10-15T00:23:11.120Z,12.55
2022-10-15T00:24:00.943Z,12.55
2022-10-15T00:24:13.178Z,12.55
2022-10-15T00:24:44.519Z,12.55
2022-10-15T00:25:17.973Z,12.55
2022-10-15T00:26:07.095Z,12.55
2022-10-15T00:26:49.147Z,12.55
2022-10-15T00:27:20.491Z,12.55
2022-10-15T00:27:49.995Z,12.55
2022-10-15T00:28:21.851Z,12.55
2022-10-15T00:28:53.301Z,12.55
2022-10-15T00:29:40.123Z,12.55
2022-10-15T00:29:53.699Z,12.55
2022-10-15T00:30:29.649Z,12.65
2022-10-15T00:30:59.143Z,12.65
2022-10-15T00:31:27.370Z,12.65
2022-10-15T00:31:58.920Z,12.49
2022-10-15T00:32:29.561Z,12.49
2022-10-15T00:32:59.723Z,12.49
2022-10-15T00:33:31.777Z,12.49
2022-10-15T00:34:03.015Z,12.49
2022-10-15T00:35:03.917Z,12.49
2022-10-15T00:35:36.069Z,12.49
2022-10-15T00:36:08.007Z,12.49
2022-10-15T00:36:38.741Z,12.49
2022-10-15T00:37:09.194Z,12.49
2022-10-15T00:37:40.396Z,12.49
2022-10-15T00:38:09.760Z,12.49
2022-10-15T00:38:41.893Z,12.49
2022-10-15T00:39:11.939Z,12.49
2022-10-15T00:39:43.135Z,12.59
2022-10-15T00:40:15.335Z,12.59
2022-10-15T00:40:46.372Z,12.59
2022-10-15T00:41:18.742Z,12.59
2022-10-15T00:41:49.173Z,12.59
2022-10-15T00:42:18.851Z,12.59
2022-10-15T00:42:49.012Z,12.59
2022-10-15T00:43:20.238Z,12.59
2022-10-15T00:43:50.683Z,12.59
2022-10-15T00:44:22.121Z,12.59
2022-10-15T00:44:52.883Z,12.59
2022-10-15T00:45:26.571Z,12.59
2022-10-15T00:45:55.068Z,12.59
2022-10-15T00:46:28.608Z,12.59
2022-10-15T00:46:58.631Z,12.59
2022-10-15T00:47:29.391Z,12.59
2022-10-15T00:47:59.590Z,12.59
2022-10-15T00:48:30.262Z,12.59
2022-10-15T00:49:32.932Z,12.59
2022-10-15T00:50:03.507Z,12.59
2022-10-15T00:51:23.235Z,12.59
2022-10-15T00:51:37.168Z,12.59
2022-10-15T00:52:09.886Z,12.59
2022-10-15T00:52:39.568Z,12.59
2022-10-15T00:53:10.041Z,12.59
2022-10-15T00:53:40.903Z,12.59
2022-10-15T00:54:23.817Z,12.49
2022-10-15T00:54:45.427Z,12.49
2022-10-15T00:56:04.705Z,12.49
2022-10-15T00:56:43.980Z,12.49
2022-10-15T00:57:29.741Z,12.49
2022-10-15T00:57:54.943Z,12.39
2022-10-15T00:58:20.973Z,12.39
2022-10-15T00:58:53.523Z,12.39
2022-10-15T01:00:39.344Z,12.39
2022-10-15T01:00:54.369Z,12.39
2022-10-15T01:01:28.676Z,12.45
2022-10-15T01:02:01.864Z,12.45
2022-10-15T01:02:29.186Z,12.45
2022-10-15T01:03:11.099Z,12.45
2022-10-15T01:03:46.538Z,12.45
2022-10-15T01:04:12.727Z,12.35
2022-10-15T01:04:49.520Z,12.35
2022-10-15T01:05:14.402Z,12.35
2022-10-15T01:05:51.793Z,12.35
2022-10-15T01:06:24.420Z,12.35
2022-10-15T01:06:51.899Z,12.35
2022-10-15T01:07:37.947Z,12.35
2022-10-15T01:07:58.335Z,12.35
2022-10-15T01:08:21.641Z,12.35
2022-10-15T01:08:52.595Z,12.35
2022-10-15T01:09:24.031Z,12.35
2022-10-15T01:09:54.346Z,12.52
2022-10-15T01:10:45.242Z,12.52
2022-10-15T01:10:56.488Z,12.52
2022-10-15T01:11:43.650Z,12.52
2022-10-15T01:11:59.264Z,12.52
2022-10-15T01:12:29.646Z,12.52
2022-10-15T01:13:00.398Z,12.52
2022-10-15T01:13:31.377Z,12.52
2022-10-15T01:14:03.915Z,12.52
2022-10-15T01:14:48.986Z,12.52
2022-10-15T01:15:04.933Z,12.52
2022-10-15T01:15:34.874Z,12.52
2022-10-15T01:16:09.551Z,12.52
2022-10-15T01:16:39.472Z,12.52
2022-10-15T01:17:10.071Z,12.52
2022-10-15T01:17:41.104Z,12.52
2022-10-15T01:18:11.091Z,12.52
2022-10-15T01:18:42.339Z,12.52
2022-10-15T01:19:12.435Z,12.52
2022-10-15T01:19:43.199Z,12.52
2022-10-15T01:20:14.556Z,12.52
2022-10-15T01:20:45.744Z,12.52
2022-10-15T01:21:49.624Z,12.52
2022-10-15T01:22:19.776Z,12.52
2022-10-15T01:22:51.788Z,12.52
2022-10-15T01:23:23.678Z,12.52
2022-10-15T01:23:51.196Z,12.52
2022-10-15T01:24:23.439Z,12.52
2022-10-15T01:24:53.239Z,12.52
2022-10-15T01:25:24.647Z,12.52
2022-10-15T01:26:00.433Z,12.52
2022-10-15T01:26:28.141Z,12.52
2022-10-15T01:27:00.012Z,12.52
2022-10-15T01:27:29.772Z,12.52
2022-10-15T01:28:00.497Z,12.52
2022-10-15T01:28:31.093Z,12.52
2022-10-15T01:29:01.947Z,12.52
2022-10-15T01:29:33.923Z,12.52
2022-10-15T01:30:05.961Z,12.52
2022-10-15T01:30:34.938Z,12.52
2022-10-15T01:31:09.818Z,12.52
2022-10-15T01:31:37.046Z,12.52
2022-10-15T01:32:09.176Z,12.52
2022-10-15T01:32:42.979Z,12.52
2022-10-15T01:33:10.246Z,12.52
2022-10-15T01:33:40.807Z,12.52
2022-10-15T01:34:11.471Z,12.52
2022-10-15T01:34:59.828Z,12.52
2022-10-15T01:35:12.753Z,12.52
2022-10-15T01:35:50.391Z,12.52
2022-10-15T01:36:15.200Z,12.52
2022-10-15T01:36:49.630Z,12.52
2022-10-15T01:37:19.414Z,12.52
2022-10-15T01:37:49.860Z,12.43
2022-10-15T01:38:20.622Z,12.43
2022-10-15T01:38:51.521Z,12.43
2022-10-15T01:39:21.679Z,12.43
2022-10-15T01:40:11.747Z,12.43
2022-10-15T01:40:23.434Z,12.43
2022-10-15T01:41:11.026Z,12.43
2022-10-15T01:41:25.481Z,12.43
2022-10-15T01:41:57.711Z,12.43
2022-10-15T01:42:30.169Z,12.43
2022-10-15T01:43:00.327Z,12.43
2022-10-15T01:43:30.177Z,12.43
2022-10-15T01:44:01.144Z,12.43
2022-10-15T01:44:31.715Z,12.43
2022-10-15T01:45:03.051Z,12.43
2022-10-15T01:45:36.770Z,12.43
2022-10-15T01:46:11.801Z,12.59
2022-10-15T01:46:42.187Z,12.59
2022-10-15T01:47:06.446Z,12.59
2022-10-15T01:47:39.901Z,12.43
2022-10-15T01:48:09.550Z,12.59
2022-10-15T01:48:41.597Z,12.59
2022-10-15T01:49:11.215Z,12.59
2022-10-15T01:49:42.219Z,12.59
2022-10-15T01:50:12.734Z,12.59
2022-10-15T01:50:42.628Z,12.59
2022-10-15T01:51:13.797Z,12.49
2022-10-15T01:51:44.865Z,12.49
2022-10-15T01:52:16.956Z,12.49
2022-10-15T01:52:47.630Z,12.49
2022-10-15T01:53:21.495Z,12.49
2022-10-15T01:54:06.566Z,12.49
2022-10-15T01:54:20.530Z,12.49
2022-10-15T01:54:51.071Z,12.49
2022-10-15T01:55:25.377Z,12.49
2022-10-15T01:55:52.630Z,12.49
2022-10-15T01:56:23.659Z,12.49
2022-10-15T01:56:54.661Z,12.49
2022-10-15T01:57:25.965Z,12.49
2022-10-15T01:57:58.198Z,12.49
2022-10-15T01:58:29.693Z,12.49
2022-10-15T01:59:01.909Z,12.49
2022-10-15T01:59:31.189Z,12.49
2022-10-15T02:00:11.970Z,12.49
2022-10-15T02:00:49.924Z,12.49
2022-10-15T02:01:06.407Z,12.49
2022-10-15T02:01:34.837Z,12.49
2022-10-15T02:02:05.385Z,12.49
2022-10-15T02:02:36.405Z,12.49
2022-10-15T02:03:07.801Z,12.49
2022-10-15T02:03:43.875Z,12.49
2022-10-15T02:04:13.125Z,12.49
2022-10-15T02:04:41.944Z,12.49
2022-10-15T02:05:30.568Z,12.65
2022-10-15T02:05:43.064Z,12.65
2022-10-15T02:06:13.169Z,12.65
2022-10-15T02:06:43.544Z,12.65
2022-10-15T02:07:15.942Z,12.65
2022-10-15T02:07:45.939Z,12.65
2022-10-15T02:08:18.318Z,12.65
2022-10-15T02:08:49.831Z,12.65
2022-10-15T02:09:20.838Z,12.65
2022-10-15T02:09:51.976Z,12.65
2022-10-15T02:10:23.420Z,12.65
2022-10-15T02:10:51.805Z,12.65
2022-10-15T02:11:22.750Z,12.65
2022-10-15T02:11:53.951Z,12.65
2022-10-15T02:12:25.176Z,12.65
2022-10-15T02:12:56.079Z,12.65
2022-10-15T02:13:44.392Z,12.65
2022-10-15T02:13:59.663Z,12.79
2022-10-15T02:14:30.114Z,12.79
2022-10-15T02:15:02.096Z,12.79
2022-10-15T02:15:31.874Z,12.79
2022-10-15T02:16:02.305Z,12.79
2022-10-15T02:16:32.839Z,12.79
2022-10-15T02:17:04.092Z,12.79
2022-10-15T02:17:34.826Z,12.69
2022-10-15T02:18:05.861Z,12.69
2022-10-15T02:18:36.994Z,12.69
2022-10-15T02:19:07.996Z,12.69
2022-10-15T02:20:12.136Z,12.69
2022-10-15T02:21:11.771Z,12.69
2022-10-15T02:22:14.306Z,12.69
2022-10-15T02:23:03.339Z,12.69
2022-10-15T02:23:16.701Z,12.69
2022-10-15T02:23:46.815Z,12.69
2022-10-15T02:24:20.366Z,12.69
2022-10-15T02:24:54.561Z,12.69
2022-10-15T02:25:21.651Z,12.69
2022-10-15T02:25:51.741Z,12.59
2022-10-15T02:26:21.760Z,12.59
2022-10-15T02:26:52.810Z,12.59
2022-10-15T02:27:24.173Z,12.59
2022-10-15T02:27:55.138Z,12.59
2022-10-15T02:28:25.762Z,12.59
2022-10-15T02:28:58.178Z,12.59
2022-10-15T02:29:30.605Z,12.59
2022-10-15T02:30:02.112Z,12.59
2022-10-15T02:30:32.280Z,12.59
2022-10-15T02:31:04.651Z,12.59
2022-10-15T02:31:32.227Z,12.59
2022-10-15T02:32:22.445Z,12.59
2022-10-15T02:32:34.670Z,12.59
2022-10-15T02:33:05.503Z,12.59
2022-10-15T02:33:36.460Z,12.59
2022-10-15T02:34:07.774Z,12.59
2022-10-15T02:34:40.599Z,12.59
2022-10-15T02:35:11.476Z,12.59
2022-10-15T02:35:41.447Z,12.45
2022-10-15T02:36:11.467Z,12.45
2022-10-15T02:36:42.356Z,12.45
2022-10-15T02:37:13.629Z,12.45
2022-10-15T02:37:43.724Z,12.45
2022-10-15T02:38:15.486Z,12.55
2022-10-15T02:38:45.987Z,12.55
2022-10-15T02:39:17.103Z,12.55
2022-10-15T02:39:50.586Z,12.55
2022-10-15T02:40:21.978Z,12.55
2022-10-15T02:40:49.873Z,12.55
2022-10-15T02:41:21.757Z,12.55
2022-10-15T02:42:02.386Z,12.55
2022-10-15T02:42:53.933Z,12.55
2022-10-15T02:43:24.840Z,12.55
2022-10-15T02:43:56.555Z,12.55
2022-10-15T02:44:27.214Z,12.55
2022-10-15T02:45:01.496Z,12.55
2022-10-15T02:45:31.477Z,12.55
2022-10-15T02:46:02.175Z,12.55
2022-10-15T02:46:32.028Z,12.55
2022-10-15T02:47:02.305Z,12.55
2022-10-15T02:47:32.999Z,12.55
2022-10-15T02:48:04.053Z,12.55
2022-10-15T02:48:34.973Z,12.65
2022-10-15T02:49:06.324Z,12.65
2022-10-15T02:49:37.163Z,12.55
2022-10-15T02:50:09.111Z,12.55
2022-10-15T02:50:41.089Z,12.55
2022-10-15T02:51:12.263Z,12.55
2022-10-15T02:51:42.292Z,12.55
2022-10-15T02:52:12.471Z,12.55
2022-10-15T02:52:43.237Z,12.55
2022-10-15T02:53:14.446Z,12.55
2022-10-15T02:53:45.238Z,12.55
2022-10-15T02:54:16.470Z,12.55
2022-10-15T02:54:46.997Z,12.55
2022-10-15T02:55:22.093Z,12.55
2022-10-15T02:55:51.513Z,12.55
2022-10-15T02:56:22.035Z,12.55
2022-10-15T02:56:51.936Z,12.55
2022-10-15T02:57:22.995Z,12.55
2022-10-15T02:57:53.474Z,12.55
2022-10-15T02:58:25.017Z,12.55
2022-10-15T02:58:55.657Z,12.55
2022-10-15T02:59:26.758Z,12.55
2022-10-15T02:59:57.209Z,12.55
2022-10-15T03:00:31.479Z,12.55
2022-10-15T03:01:01.614Z,12.55
2022-10-15T03:01:32.620Z,12.55
2022-10-15T03:02:33.049Z,12.55
2022-10-15T03:03:03.917Z,12.55
2022-10-15T03:03:34.209Z,12.55
2022-10-15T03:04:05.959Z,12.55
2022-10-15T03:04:36.157Z,12.55
2022-10-15T03:05:07.264Z,12.55
2022-10-15T03:05:41.127Z,12.55
2022-10-15T03:06:11.773Z,12.55
2022-10-15T03:06:42.942Z,12.55
2022-10-15T03:07:12.012Z,12.55
2022-10-15T03:07:43.247Z,12.55
2022-10-15T03:08:13.263Z,12.55
2022-10-15T03:08:44.080Z,12.55
2022-10-15T03:09:15.307Z,12.55
2022-10-15T03:09:45.962Z,12.55
2022-10-15T03:10:17.223Z,12.55
2022-10-15T03:10:49.750Z,12.55
2022-10-15T03:11:21.287Z,12.55
2022-10-15T03:11:53.364Z,12.55
2022-10-15T03:12:23.436Z,12.55
2022-10-15T03:12:52.666Z,12.55
2022-10-15T03:13:23.445Z,12.55
2022-10-15T03:13:53.861Z,12.55
2022-10-15T03:14:25.089Z,12.55
2022-10-15T03:14:56.510Z,12.55
2022-10-15T03:15:27.849Z,12.55
2022-10-15T03:15:59.990Z,12.45
2022-10-15T03:16:31.994Z,12.45
2022-10-15T03:17:17.310Z,12.55
2022-10-15T03:17:31.667Z,12.55
2022-10-15T03:18:03.209Z,12.45
2022-10-15T03:18:36.761Z,12.45
2022-10-15T03:19:04.457Z,12.45
2022-10-15T03:19:35.091Z,12.59
2022-10-15T03:20:06.540Z,12.59
2022-10-15T03:20:43.639Z,12.69
2022-10-15T03:21:09.822Z,12.69
2022-10-15T03:21:42.359Z,12.69
2022-10-15T03:22:13.400Z,12.69
2022-10-15T03:23:00.306Z,12.69
2022-10-15T03:23:13.584Z,12.69
2022-10-15T03:23:43.684Z,12.59
2022-10-15T03:24:14.961Z,12.59
2022-10-15T03:24:45.312Z,12.59
2022-10-15T03:25:17.469Z,12.59
2022-10-15T03:26:06.671Z,12.69
2022-10-15T03:26:24.744Z,12.69
2022-10-15T03:26:51.281Z,12.69
2022-10-15T03:27:22.458Z,12.69
2022-10-15T03:27:52.989Z,12.69
2022-10-15T03:28:23.031Z,12.69
2022-10-15T03:28:53.707Z,12.69
2022-10-15T03:29:24.619Z,12.69
2022-10-15T03:29:55.491Z,12.69
2022-10-15T03:30:27.025Z,12.69
2022-10-15T03:30:57.587Z,12.69
2022-10-15T03:31:28.190Z,12.69
2022-10-15T03:32:01.945Z,12.69
2022-10-15T03:32:34.332Z,12.69
2022-10-15T03:33:03.792Z,12.69
2022-10-15T03:33:33.116Z,12.59
2022-10-15T03:34:04.532Z,12.59
2022-10-15T03:34:35.740Z,12.59
2022-10-15T03:35:06.171Z,12.59
2022-10-15T03:35:37.633Z,12.59
2022-10-15T03:36:07.039Z,12.59
2022-10-15T03:36:37.861Z,12.59
2022-10-15T03:37:12.675Z,12.59
2022-10-15T03:37:42.978Z,12.59
2022-10-15T03:38:13.128Z,12.59
2022-10-15T03:39:00.824Z,12.59
2022-10-15T03:39:13.269Z,12.59
2022-10-15T03:39:44.332Z,12.59
2022-10-15T03:40:17.156Z,12.59
2022-10-15T03:40:46.861Z,12.59
2022-10-15T03:41:16.950Z,12.59
2022-10-15T03:41:48.235Z,12.59
2022-10-15T03:42:22.847Z,12.59
2022-10-15T03:42:52.308Z,12.59
2022-10-15T03:43:41.861Z,12.59
2022-10-15T03:43:53.528Z,12.59
2022-10-15T03:44:23.696Z,12.59
2022-10-15T03:44:54.294Z,12.59
2022-10-15T03:45:25.788Z,12.59
2022-10-15T03:45:56.254Z,12.59
2022-10-15T03:46:27.733Z,12.59
2022-10-15T03:46:58.360Z,12.59
2022-10-15T03:47:33.803Z,12.59
2022-10-15T03:48:02.528Z,12.59
2022-10-15T03:48:33.609Z,12.59
2022-10-15T03:49:03.468Z,12.59
2022-10-15T03:49:33.893Z,12.59
2022-10-15T03:50:05.197Z,12.59
2022-10-15T03:50:40.432Z,12.59
2022-10-15T03:51:06.494Z,12.59
2022-10-15T03:51:37.079Z,12.59
2022-10-15T03:52:07.879Z,12.59
2022-10-15T03:52:40.047Z,12.59
2022-10-15T03:53:13.603Z,12.59
2022-10-15T03:53:44.043Z,12.59
2022-10-15T03:54:12.637Z,12.59
2022-10-15T03:54:44.138Z,12.59
2022-10-15T03:55:15.276Z,12.59
2022-10-15T03:55:45.340Z,12.59
2022-10-15T03:56:16.459Z,12.59
2022-10-15T03:57:06.657Z,12.59
2022-10-15T03:57:18.853Z,12.59
2022-10-15T03:57:51.356Z,12.59
2022-10-15T03:58:23.595Z,12.59
2022-10-15T03:58:52.751Z,12.59
2022-10-15T03:59:22.985Z,12.59
2022-10-15T03:59:54.376Z,12.59
2022-10-15T04:00:25.983Z,12.59
2022-10-15T04:00:55.150Z,12.59
2022-10-15T04:01:26.365Z,12.59
2022-10-15T04:01:57.188Z,12.59
2022-10-15T04:02:28.540Z,12.59
2022-10-15T04:02:59.254Z,12.59
2022-10-15T04:03:32.510Z,12.59
2022-10-15T04:04:01.557Z,12.59
2022-10-15T04:04:32.971Z,12.59
2022-10-15T04:05:03.943Z,12.59
2022-10-15T04:05:34.837Z,12.59
2022-10-15T04:06:36.745Z,12.59
2022-10-15T04:07:38.411Z,12.59
2022-10-15T04:08:12.577Z,12.59
2022-10-15T04:08:42.250Z,12.59
2022-10-15T04:09:12.350Z,12.59
2022-10-15T04:09:43.024Z,12.59
2022-10-15T04:10:16.420Z,12.59
2022-10-15T04:10:45.804Z,12.59
2022-10-15T04:11:15.557Z,12.59
2022-10-15T04:11:46.667Z,12.59
2022-10-15T04:12:18.165Z,12.59
2022-10-15T04:12:50.481Z,12.59
2022-10-15T04:13:19.542Z,12.59
2022-10-15T04:13:50.056Z,12.59
2022-10-15T04:14:21.350Z,12.59
2022-10-15T04:14:52.005Z,12.59
2022-10-15T04:15:23.699Z,12.59
2022-10-15T04:15:54.252Z,12.59
2022-10-15T04:16:25.165Z,12.59
2022-10-15T04:16:56.789Z,12.59
2022-10-15T04:17:29.232Z,12.59
2022-10-15T04:17:59.325Z,12.59
2022-10-15T04:18:31.706Z,12.59
2022-10-15T04:19:00.010Z,12.59
2022-10-15T04:19:31.660Z,12.59
2022-10-15T04:20:04.540Z,12.59
2022-10-15T04:20:34.020Z,12.59
2022-10-15T04:21:04.973Z,12.59
2022-10-15T04:22:07.005Z,12.59
2022-10-15T04:22:37.577Z,12.59
2022-10-15T04:23:11.193Z,12.59
2022-10-15T04:23:41.032Z,12.59
2022-10-15T04:24:43.948Z,12.59
2022-10-15T04:25:13.233Z,12.59
2022-10-15T04:25:43.420Z,12.59
2022-10-15T04:26:15.045Z,12.59
2022-10-15T04:26:46.234Z,12.49
2022-10-15T04:27:16.646Z,12.49
2022-10-15T04:27:50.426Z,12.49
2022-10-15T04:28:20.534Z,12.49
2022-10-15T04:28:51.931Z,12.49
2022-10-15T04:29:21.588Z,12.49
2022-10-15T04:29:52.196Z,12.49
2022-10-15T04:30:34.437Z,12.49
2022-10-15T04:30:53.767Z,12.59
2022-10-15T04:31:24.307Z,12.59
2022-10-15T04:31:55.284Z,12.59
2022-10-15T04:32:26.846Z,12.59
2022-10-15T04:32:58.961Z,12.59
2022-10-15T04:33:30.344Z,12.59
2022-10-15T04:34:00.893Z,12.59
2022-10-15T04:34:30.872Z,12.59
2022-10-15T04:35:02.146Z,12.59
2022-10-15T04:35:35.354Z,12.59
2022-10-15T04:36:04.981Z,12.59
2022-10-15T04:36:35.133Z,12.49
2022-10-15T04:37:13.562Z,12.49
2022-10-15T04:37:38.782Z,12.49
2022-10-15T04:38:10.133Z,12.49
2022-10-15T04:38:40.967Z,12.49
2022-10-15T04:39:13.720Z,12.49
2022-10-15T04:39:43.288Z,12.49
2022-10-15T04:40:13.455Z,12.49
2022-10-15T04:40:43.914Z,12.49
2022-10-15T04:41:13.880Z,12.49
2022-10-15T04:42:15.833Z,12.49
2022-10-15T04:42:46.273Z,12.49
2022-10-15T04:43:21.031Z,12.49
2022-10-15T04:43:51.019Z,12.49
2022-10-15T04:44:22.006Z,12.49
2022-10-15T04:44:52.117Z,12.49
2022-10-15T04:45:24.899Z,12.49
2022-10-15T04:45:53.987Z,12.49
2022-10-15T04:46:24.002Z,12.49
2022-10-15T04:46:54.481Z,12.49
2022-10-15T04:47:25.775Z,12.49
2022-10-15T04:47:59.043Z,12.49
2022-10-15T04:48:27.406Z,12.49
2022-10-15T04:49:01.458Z,12.49
2022-10-15T04:49:32.574Z,12.49
2022-10-15T04:50:03.115Z,12.49
2022-10-15T04:50:33.933Z,12.49
2022-10-15T04:51:03.037Z,12.49
2022-10-15T04:51:34.242Z,12.49
2022-10-15T04:52:04.900Z,12.49
2022-10-15T04:52:35.991Z,12.49
2022-10-15T04:53:07.382Z,12.49
2022-10-15T04:53:37.873Z,12.49
2022-10-15T04:54:10.902Z,12.49
2022-10-15T04:54:42.668Z,12.49
2022-10-15T04:55:14.763Z,12.49
2022-10-15T04:55:43.718Z,12.49
2022-10-15T04:56:13.239Z,12.65
2022-10-15T04:56:43.936Z,12.49
2022-10-15T04:57:14.665Z,12.49
2022-10-15T04:57:46.229Z,12.65
2022-10-15T04:58:17.116Z,12.49
2022-10-15T04:58:51.300Z,12.49
2022-10-15T04:59:19.898Z,12.65
2022-10-15T04:59:55.393Z,12.49
2022-10-15T05:00:23.763Z,12.65
2022-10-15T05:00:52.557Z,12.65
2022-10-15T05:01:24.843Z,12.65
2022-10-15T05:01:53.866Z,12.49
2022-10-15T05:02:24.665Z,12.49
2022-10-15T05:02:55.576Z,12.49
2022-10-15T05:03:27.206Z,12.49
2022-10-15T05:03:58.265Z,12.49
2022-10-15T05:04:28.178Z,12.49
2022-10-15T05:05:01.039Z,12.49
2022-10-15T05:05:31.556Z,12.49
2022-10-15T05:06:02.125Z,12.49
2022-10-15T05:06:32.733Z,12.49
2022-10-15T05:07:14.491Z,12.65
2022-10-15T05:07:57.093Z,12.49
2022-10-15T05:08:05.788Z,12.49
2022-10-15T05:08:36.979Z,12.49
2022-10-15T05:09:07.327Z,12.49
2022-10-15T05:09:55.433Z,12.49
2022-10-15T05:10:11.122Z,12.49
2022-10-15T05:25:44.452Z,12.49
2022-10-15T05:31:23.296Z,12.65
2022-10-15T05:32:02.547Z,12.65
2022-10-15T05:32:26.927Z,12.65
2022-10-15T05:33:23.393Z,12.65
2022-10-15T05:35:26.558Z,12.65
2022-10-15T05:36:01.031Z,12.49
2022-10-15T05:36:32.225Z,12.49
2022-10-15T05:37:33.197Z,12.59
2022-10-15T05:38:29.034Z,12.59
2022-10-15T05:38:34.657Z,12.59
2022-10-15T05:39:05.516Z,12.49
2022-10-15T05:40:21.228Z,12.49
2022-10-15T05:40:38.523Z,12.49
2022-10-15T05:41:10.733Z,12.59
2022-10-15T05:41:42.285Z,12.59
2022-10-15T05:42:14.150Z,12.59
2022-10-15T05:42:45.419Z,12.59
2022-10-15T05:43:22.985Z,12.59
2022-10-15T05:43:55.433Z,12.59
2022-10-15T05:44:23.324Z,12.59
2022-10-15T05:44:48.403Z,12.59
2022-10-15T05:45:41.447Z,12.59
2022-10-15T05:46:21.123Z,12.59
2022-10-15T05:46:53.238Z,12.59
2022-10-15T05:47:27.313Z,12.59
2022-10-15T05:48:21.889Z,12.75
2022-10-15T05:48:54.732Z,12.65
2022-10-15T05:49:25.742Z,12.65
2022-10-15T05:49:56.756Z,12.49
2022-10-15T05:50:32.773Z,12.65
2022-10-15T05:51:05.770Z,12.65
2022-10-15T05:51:30.926Z,12.49
2022-10-15T05:55:00.157Z,12.65
2022-10-15T05:55:07.976Z,12.75
2022-10-15T05:55:37.431Z,12.75
2022-10-15T05:56:25.642Z,12.75
2022-10-15T05:56:46.875Z,12.75
2022-10-15T05:57:30.342Z,12.75
2022-10-15T05:57:44.194Z,12.75
2022-10-15T05:58:24.407Z,12.75
2022-10-15T05:58:53.224Z,12.75
2022-10-15T05:59:15.003Z,12.75
2022-10-15T05:59:48.051Z,12.75
2022-10-15T06:00:26.253Z,12.75
2022-10-15T06:00:47.863Z,12.75
2022-10-15T06:01:18.841Z,12.75
2022-10-15T06:01:49.986Z,12.75
2022-10-15T06:02:23.432Z,12.75
2022-10-15T06:03:20.629Z,12.75
2022-10-15T06:03:53.924Z,12.75
2022-10-15T06:04:36.038Z,12.75
2022-10-15T06:04:56.081Z,12.75
2022-10-15T06:05:27.985Z,12.75
2022-10-15T06:05:57.959Z,12.75
2022-10-15T06:06:29.101Z,12.75
2022-10-15T06:07:00.019Z,12.75
2022-10-15T06:07:33.365Z,12.75
2022-10-15T06:08:03.955Z,12.75
2022-10-15T06:08:33.903Z,12.75
2022-10-15T06:09:04.187Z,12.75
2022-10-15T06:09:35.293Z,12.75
2022-10-15T06:10:06.663Z,12.75
2022-10-15T06:10:36.938Z,12.75
2022-10-15T06:11:09.695Z,12.75
2022-10-15T06:11:42.930Z,12.75
2022-10-15T06:12:11.230Z,12.75
2022-10-15T06:12:44.276Z,12.75
2022-10-15T06:13:16.836Z,12.75
2022-10-15T06:13:44.277Z,12.75
2022-10-15T06:14:15.393Z,12.75
2022-10-15T06:14:44.707Z,12.75
2022-10-15T06:15:16.757Z,12.75
2022-10-15T06:16:11.161Z,12.85
2022-10-15T06:16:21.126Z,12.85
2022-10-15T06:16:49.214Z,12.85
2022-10-15T06:17:21.199Z,12.85
2022-10-15T06:17:53.285Z,12.85
2022-10-15T06:18:24.520Z,12.85
2022-10-15T06:18:53.491Z,12.85
2022-10-15T06:19:24.818Z,12.85
2022-10-15T06:19:55.641Z,12.85
2022-10-15T06:20:27.214Z,12.85
2022-10-15T06:20:57.338Z,12.85
2022-10-15T06:21:28.426Z,12.85
2022-10-15T06:21:59.184Z,12.85
2022-10-15T06:22:31.689Z,12.85
2022-10-15T06:23:03.867Z,12.95
2022-10-15T06:23:33.902Z,12.95
2022-10-15T06:24:07.676Z,12.95
2022-10-15T06:24:35.287Z,12.95
2022-10-15T06:25:36.605Z,12.95
2022-10-15T06:26:07.201Z,12.95
2022-10-15T06:26:37.684Z,12.95
2022-10-15T06:27:10.627Z,12.95
2022-10-15T06:27:40.470Z,12.95
2022-10-15T06:28:13.600Z,12.95
2022-10-15T06:28:43.886Z,12.95
2022-10-15T06:29:14.785Z,12.95
2022-10-15T06:29:45.797Z,13.05
2022-10-15T06:30:18.255Z,12.89
2022-10-15T06:30:46.741Z,13.05
2022-10-15T06:31:17.879Z,13.05
2022-10-15T06:31:48.635Z,13.05
2022-10-15T06:32:19.399Z,13.05
2022-10-15T06:32:50.013Z,12.89
2022-10-15T06:33:24.765Z,12.89
2022-10-15T06:33:54.160Z,12.89
2022-10-15T06:34:24.689Z,12.99
2022-10-15T06:34:55.929Z,12.99
2022-10-15T06:35:27.113Z,12.99
2022-10-15T06:35:56.458Z,12.99
2022-10-15T06:36:27.340Z,12.99
2022-10-15T06:36:58.098Z,13.09
2022-10-15T06:37:29.649Z,13.09
2022-10-15T06:38:03.159Z,13.09
2022-10-15T06:38:33.098Z,13.09
2022-10-15T06:39:04.554Z,13.09
2022-10-15T06:39:35.090Z,13.09
2022-10-15T06:40:06.364Z,13.09
2022-10-15T06:40:36.028Z,13.09
2022-10-15T06:41:06.725Z,13.09
2022-10-15T06:41:38.161Z,13.09
2022-10-15T06:42:08.957Z,13.19
2022-10-15T06:42:39.971Z,13.19
2022-10-15T06:43:11.254Z,13.19
2022-10-15T06:43:42.739Z,13.19
2022-10-15T06:44:15.361Z,13.19
2022-10-15T06:44:45.365Z,13.19
2022-10-15T06:45:19.429Z,13.19
2022-10-15T06:45:45.409Z,13.04
2022-10-15T06:46:16.592Z,13.04
2022-10-15T06:46:47.550Z,13.04
2022-10-15T06:47:20.063Z,13.04
2022-10-15T06:47:49.052Z,13.04
2022-10-15T06:48:21.186Z,13.04
2022-10-15T06:48:53.558Z,13.04
2022-10-15T06:49:24.558Z,13.04
2022-10-15T06:49:55.169Z,13.04
2022-10-15T06:50:25.895Z,13.04
2022-10-15T06:50:56.165Z,13.04
2022-10-15T06:52:01.082Z,13.14
2022-10-15T06:52:28.495Z,13.14
2022-10-15T06:53:30.284Z,13.14
2022-10-15T06:54:04.679Z,13.14
2022-10-15T06:54:34.559Z,13.14
2022-10-15T06:55:05.203Z,13.14
2022-10-15T06:55:35.515Z,13.14
2022-10-15T06:56:05.953Z,12.98
2022-10-15T06:56:36.368Z,12.98
2022-10-15T06:57:08.899Z,12.98
2022-10-15T06:57:38.376Z,12.98
2022-10-15T06:58:09.869Z,12.98
2022-10-15T06:58:41.266Z,12.98
2022-10-15T06:59:14.109Z,12.98
2022-10-15T06:59:44.535Z,12.98
2022-10-15T07:00:15.770Z,12.98
2022-10-15T07:00:45.998Z,12.98
2022-10-15T07:01:15.786Z,12.98
2022-10-15T07:01:46.275Z,13.08
2022-10-15T07:02:17.403Z,13.08
2022-10-15T07:02:48.567Z,13.08
2022-10-15T07:03:18.936Z,13.08
2022-10-15T07:03:50.431Z,13.08
2022-10-15T07:04:21.027Z,13.08
2022-10-15T07:04:53.666Z,13.08
2022-10-15T07:05:28.036Z,13.08
2022-10-15T07:05:55.555Z,13.08
2022-10-15T07:06:26.032Z,13.08
2022-10-15T07:06:56.225Z,13.08
2022-10-15T07:07:27.155Z,13.08
2022-10-15T07:07:59.885Z,13.08
2022-10-15T07:08:29.296Z,13.18
2022-10-15T07:09:00.295Z,13.18
2022-10-15T07:09:31.541Z,13.18
2022-10-15T07:10:06.372Z,13.18
2022-10-15T07:10:43.100Z,13.18
2022-10-15T07:11:05.404Z,13.18
2022-10-15T07:11:35.868Z,13.02
2022-10-15T07:12:07.469Z,13.02
2022-10-15T07:12:36.741Z,13.18
2022-10-15T07:13:15.128Z,13.18
2022-10-15T07:13:39.176Z,13.18
2022-10-15T07:14:11.535Z,13.28
2022-10-15T07:14:42.495Z,13.28
2022-10-15T07:15:45.515Z,13.28
2022-10-15T07:16:15.422Z,13.12
2022-10-15T07:16:45.736Z,13.12
2022-10-15T07:17:20.049Z,13.12
2022-10-15T07:17:46.991Z,13.12
2022-10-15T07:18:18.476Z,13.12
2022-10-15T07:18:49.134Z,13.28
2022-10-15T07:19:21.143Z,13.22
2022-10-15T07:19:51.899Z,13.22
2022-10-15T07:20:25.528Z,13.22
2022-10-15T07:20:55.849Z,13.22
2022-10-15T07:21:26.197Z,13.22
2022-10-15T07:21:56.591Z,13.22
2022-10-15T07:22:27.067Z,13.22
2022-10-15T07:22:59.200Z,13.22
2022-10-15T07:23:29.127Z,13.32
2022-10-15T07:24:09.067Z,13.15
2022-10-15T07:24:30.342Z,13.15